N7KE KCCB-KLAX
Flight info
| Callsign | N7KE |
|---|---|
| Flight time | 0h 23m |
| Altitude | 7000 |
| Route | PDZ KL65/N0141F080 KSNA |
| Aircraft | C182/L-SDGRY/S |
Departure
| Time | 2026-05-06 03:41 |
|---|---|
| Airport | Upland-Cable Airport (KCCB) |
Arrival
| Time | 2026-05-06 04:04 |
|---|---|
| Airport | Los Angeles International Airport (KLAX) |
| Time | Latitude | Longitude | Altitude | Speed | Heading |
|---|---|---|---|---|---|
| 2026-05-06 03:15 | 34.11104 | -117.68596 | 1428 ft | 0 kts | 340° |
| 2026-05-06 03:27 | 34.11114 | -117.68593 | 1429 ft | 6 kts | 36° |
| 2026-05-06 03:27 | 34.11149 | -117.68576 | 1432 ft | 0 kts | 344° |
| 2026-05-06 03:28 | 34.11170 | -117.68584 | 1433 ft | 9 kts | 39° |
| 2026-05-06 03:28 | 34.11223 | -117.68448 | 1436 ft | 29 kts | 60° |
| 2026-05-06 03:28 | 34.11273 | -117.68290 | 1441 ft | 26 kts | 66° |
| 2026-05-06 03:28 | 34.11334 | -117.68157 | 1445 ft | 0 kts | 315° |
| 2026-05-06 03:39 | 34.11336 | -117.68159 | 1445 ft | 3 kts | 313° |
| 2026-05-06 03:39 | 34.11324 | -117.68241 | 1443 ft | 19 kts | 248° |
| 2026-05-06 03:39 | 34.11211 | -117.68585 | 1434 ft | 64 kts | 248° |
| 2026-05-06 03:40 | 34.11089 | -117.68965 | 1462 ft | 81 kts | 249° |
| 2026-05-06 03:40 | 34.10693 | -117.69773 | 1643 ft | 58 kts | 220° |
| 2026-05-06 03:40 | 34.10439 | -117.70283 | 1762 ft | 81 kts | 269° |
| 2026-05-06 03:40 | 34.10400 | -117.71004 | 2007 ft | 93 kts | 267° |
| 2026-05-06 03:41 | 34.10368 | -117.71801 | 2257 ft | 93 kts | 268° |
| 2026-05-06 03:41 | 34.10342 | -117.72588 | 2511 ft | 96 kts | 268° |
| 2026-05-06 03:41 | 34.10315 | -117.73362 | 2760 ft | 95 kts | 266° |
| 2026-05-06 03:41 | 34.10294 | -117.73908 | 2932 ft | 96 kts | 266° |
| 2026-05-06 03:42 | 34.10245 | -117.74966 | 3270 ft | 94 kts | 265° |
| 2026-05-06 03:42 | 34.10205 | -117.75747 | 3519 ft | 93 kts | 265° |
| 2026-05-06 03:42 | 34.10161 | -117.76523 | 3766 ft | 91 kts | 265° |
| 2026-05-06 03:42 | 34.10112 | -117.77270 | 3987 ft | 92 kts | 264° |
| 2026-05-06 03:43 | 34.10051 | -117.78133 | 4009 ft | 111 kts | 265° |
| 2026-05-06 03:43 | 34.09980 | -117.79105 | 4010 ft | 122 kts | 265° |
| 2026-05-06 03:43 | 34.09931 | -117.79787 | 4008 ft | 126 kts | 265° |
| 2026-05-06 03:43 | 34.09854 | -117.80864 | 4007 ft | 130 kts | 265° |
| 2026-05-06 03:44 | 34.09778 | -117.81943 | 4010 ft | 131 kts | 265° |
| 2026-05-06 03:44 | 34.09700 | -117.83049 | 4009 ft | 132 kts | 265° |
| 2026-05-06 03:44 | 34.09621 | -117.84162 | 4005 ft | 132 kts | 265° |
| 2026-05-06 03:44 | 34.09543 | -117.85268 | 4010 ft | 132 kts | 265° |
| 2026-05-06 03:45 | 34.09465 | -117.86357 | 4006 ft | 132 kts | 265° |
| 2026-05-06 03:45 | 34.09387 | -117.87466 | 4006 ft | 132 kts | 265° |
| 2026-05-06 03:45 | 34.09307 | -117.88580 | 4007 ft | 132 kts | 265° |
| 2026-05-06 03:45 | 34.09229 | -117.89692 | 4005 ft | 132 kts | 265° |
| 2026-05-06 03:46 | 34.09151 | -117.90787 | 4006 ft | 132 kts | 265° |
| 2026-05-06 03:46 | 34.09066 | -117.91901 | 4004 ft | 132 kts | 263° |
| 2026-05-06 03:46 | 34.08797 | -117.92941 | 4005 ft | 129 kts | 249° |
| 2026-05-06 03:46 | 34.08555 | -117.93960 | 3999 ft | 131 kts | 258° |
| 2026-05-06 03:47 | 34.08400 | -117.95057 | 3995 ft | 133 kts | 261° |
| 2026-05-06 03:47 | 34.08269 | -117.96151 | 3992 ft | 133 kts | 262° |
| 2026-05-06 03:47 | 34.08140 | -117.97267 | 3993 ft | 133 kts | 262° |
| 2026-05-06 03:47 | 34.08014 | -117.98371 | 3991 ft | 133 kts | 262° |
| 2026-05-06 03:48 | 34.07889 | -117.99460 | 3993 ft | 133 kts | 263° |
| 2026-05-06 03:48 | 34.07490 | -118.00239 | 4086 ft | 86 kts | 255° |
| 2026-05-06 03:48 | 34.07390 | -118.00601 | 4143 ft | 71 kts | 202° |
| 2026-05-06 03:48 | 34.07097 | -118.01362 | 4289 ft | 84 kts | 249° |
| 2026-05-06 03:49 | 34.06866 | -118.02127 | 4311 ft | 106 kts | 251° |
| 2026-05-06 03:49 | 34.06622 | -118.02971 | 4345 ft | 116 kts | 250° |
| 2026-05-06 03:49 | 34.06335 | -118.03840 | 4618 ft | 101 kts | 248° |
| 2026-05-06 03:49 | 34.06109 | -118.04457 | 4886 ft | 91 kts | 250° |
| 2026-05-06 03:50 | 34.05910 | -118.05271 | 4946 ft | 101 kts | 255° |
| 2026-05-06 03:50 | 34.05661 | -118.06020 | 5236 ft | 86 kts | 256° |
| 2026-05-06 03:50 | 34.05490 | -118.06728 | 5298 ft | 99 kts | 252° |
| 2026-05-06 03:50 | 34.05248 | -118.07397 | 5519 ft | 83 kts | 252° |
| 2026-05-06 03:51 | 34.05074 | -118.08001 | 5703 ft | 77 kts | 244° |
| 2026-05-06 03:51 | 34.04870 | -118.08536 | 5860 ft | 71 kts | 255° |
| 2026-05-06 03:51 | 34.04537 | -118.09303 | 5587 ft | 115 kts | 244° |
| 2026-05-06 03:51 | 34.04316 | -118.09966 | 5971 ft | 74 kts | 244° |
| 2026-05-06 03:52 | 34.04056 | -118.10640 | 5894 ft | 98 kts | 250° |
| 2026-05-06 03:52 | 34.03785 | -118.11489 | 5838 ft | 106 kts | 252° |
| 2026-05-06 03:52 | 34.03563 | -118.12252 | 6034 ft | 94 kts | 249° |
| 2026-05-06 03:52 | 34.03274 | -118.12979 | 6116 ft | 102 kts | 248° |
| 2026-05-06 03:53 | 34.02728 | -118.13572 | 6157 ft | 112 kts | 212° |
| 2026-05-06 03:53 | 34.02024 | -118.14123 | 5991 ft | 128 kts | 218° |
| 2026-05-06 03:53 | 34.01420 | -118.14930 | 5827 ft | 129 kts | 230° |
| 2026-05-06 03:53 | 34.00829 | -118.15694 | 5283 ft | 136 kts | 234° |
| 2026-05-06 03:54 | 34.00262 | -118.16497 | 4591 ft | 122 kts | 232° |
| 2026-05-06 03:54 | 33.99759 | -118.17177 | 4451 ft | 92 kts | 210° |
| 2026-05-06 03:54 | 33.99207 | -118.17541 | 4135 ft | 94 kts | 217° |
| 2026-05-06 03:54 | 33.98729 | -118.17994 | 3960 ft | 84 kts | 231° |
| 2026-05-06 03:55 | 33.98384 | -118.18572 | 3945 ft | 75 kts | 233° |
| 2026-05-06 03:55 | 33.98060 | -118.19032 | 4075 ft | 72 kts | 229° |
| 2026-05-06 03:55 | 33.97714 | -118.19508 | 4128 ft | 80 kts | 230° |
| 2026-05-06 03:55 | 33.97354 | -118.20079 | 4057 ft | 93 kts | 237° |
| 2026-05-06 03:56 | 33.97029 | -118.20753 | 3864 ft | 93 kts | 244° |
| 2026-05-06 03:56 | 33.96731 | -118.21440 | 3682 ft | 95 kts | 243° |
| 2026-05-06 03:56 | 33.96469 | -118.22163 | 3494 ft | 81 kts | 248° |
| 2026-05-06 03:56 | 33.96245 | -118.22742 | 3341 ft | 75 kts | 244° |
| 2026-05-06 03:57 | 33.96015 | -118.23317 | 3157 ft | 74 kts | 248° |
| 2026-05-06 03:57 | 33.95829 | -118.23874 | 3056 ft | 62 kts | 249° |
| 2026-05-06 03:57 | 33.95686 | -118.24311 | 2978 ft | 70 kts | 250° |
| 2026-05-06 03:57 | 33.95500 | -118.24863 | 2860 ft | 72 kts | 252° |
| 2026-05-06 03:58 | 33.95381 | -118.25388 | 2747 ft | 74 kts | 257° |
| 2026-05-06 03:58 | 33.95242 | -118.26023 | 2516 ft | 78 kts | 256° |
| 2026-05-06 03:58 | 33.95122 | -118.26599 | 2427 ft | 69 kts | 256° |
| 2026-05-06 03:58 | 33.95015 | -118.27138 | 2328 ft | 62 kts | 258° |
| 2026-05-06 03:59 | 33.94902 | -118.27650 | 2196 ft | 70 kts | 256° |
| 2026-05-06 03:59 | 33.94775 | -118.28252 | 2041 ft | 77 kts | 259° |
| 2026-05-06 03:59 | 33.94699 | -118.28848 | 2026 ft | 73 kts | 263° |
| 2026-05-06 03:59 | 33.94634 | -118.29457 | 1923 ft | 73 kts | 265° |
| 2026-05-06 04:00 | 33.94573 | -118.30059 | 1782 ft | 70 kts | 263° |
| 2026-05-06 04:00 | 33.94494 | -118.30623 | 1631 ft | 68 kts | 264° |
| 2026-05-06 04:00 | 33.94419 | -118.31161 | 1505 ft | 65 kts | 259° |
| 2026-05-06 04:00 | 33.94371 | -118.31691 | 1375 ft | 62 kts | 263° |
| 2026-05-06 04:01 | 33.94324 | -118.32216 | 1260 ft | 64 kts | 263° |
| 2026-05-06 04:01 | 33.94282 | -118.32738 | 1158 ft | 62 kts | 261° |
| 2026-05-06 04:01 | 33.94223 | -118.33256 | 1058 ft | 64 kts | 260° |
| 2026-05-06 04:01 | 33.94178 | -118.33805 | 949 ft | 68 kts | 260° |
| 2026-05-06 04:02 | 33.94125 | -118.34381 | 832 ft | 69 kts | 261° |
| 2026-05-06 04:02 | 33.94066 | -118.34958 | 727 ft | 65 kts | 258° |
| 2026-05-06 04:02 | 33.94032 | -118.35485 | 604 ft | 62 kts | 266° |
| 2026-05-06 04:02 | 33.93980 | -118.36013 | 483 ft | 64 kts | 258° |
| 2026-05-06 04:03 | 33.93923 | -118.36502 | 406 ft | 61 kts | 261° |
| 2026-05-06 04:03 | 33.93874 | -118.36970 | 380 ft | 55 kts | 262° |
| 2026-05-06 04:03 | 33.93837 | -118.37433 | 312 ft | 57 kts | 254° |
| 2026-05-06 04:03 | 33.93777 | -118.37928 | 228 ft | 59 kts | 263° |
| 2026-05-06 04:04 | 33.93732 | -118.38418 | 158 ft | 58 kts | 261° |
| 2026-05-06 04:04 | 33.93683 | -118.38890 | 125 ft | 60 kts | 256° |
| 2026-05-06 04:04 | 33.93637 | -118.39260 | 119 ft | 24 kts | 270° |
| 2026-05-06 04:04 | 33.93657 | -118.39364 | 118 ft | 4 kts | 324° |
| 2026-05-06 04:05 | 33.93686 | -118.39371 | 121 ft | 0 kts | 355° |
| 2026-05-06 04:05 | 33.93709 | -118.39372 | 120 ft | 10 kts | 357° |
| 2026-05-06 04:06 | 33.93828 | -118.39375 | 121 ft | 25 kts | 351° |
| 2026-05-06 04:06 | 33.93931 | -118.39372 | 121 ft | 0 kts | 346° |
| 2026-05-06 04:07 | 33.93941 | -118.39392 | 121 ft | 10 kts | 274° |
| 2026-05-06 04:07 | 33.93955 | -118.39532 | 121 ft | 23 kts | 333° |
| 2026-05-06 04:07 | 33.94000 | -118.39593 | 121 ft | 14 kts | 267° |
| 2026-05-06 04:08 | 33.93984 | -118.39781 | 121 ft | 31 kts | 263° |
| 2026-05-06 04:08 | 33.94025 | -118.40014 | 121 ft | 25 kts | 294° |
| 2026-05-06 04:08 | 33.94055 | -118.40121 | 119 ft | 2 kts | 261° |
| 2026-05-06 04:08 | 33.94054 | -118.40142 | 121 ft | 0 kts | 261° |